Terminal Aerodrome Forecast
Issued by NWS Omaha/Valley, NE

Home | Current Version | Previous Version | Text Only | Print | Product List | Glossary On
Versions: 1 2 3 4 5 6 7 8 9 10 11 12 13 14 15 16 17 18 19 20 21 22 23 24 25
000
FTUS43 KOAX 182320
TAFOMA
TAF
KOMA 182320Z 1900/1924 15011KT P6SM SKC
     FM190900 17007KT 5SM BR BKN090
     FM191200 15006KT 1 1/2SM BR OVC010
     FM191300 15006KT 2SM BR OVC008
     FM191700 15006KT 4SM BR OVC008
     FM191900 15006KT P6SM OVC008=

USA.gov is the U.S. government's official web portal to all federal, state and local government web resources and services.